sensor_id;sensor_type;location;lat;lon;timestamp;P1;durP1;ratioP1;P2;durP2;ratioP2
17864;SDS011;9058;52.018;4.202;2022-10-19T00:01:01;16.90;;;9.43;;
17864;SDS011;9058;52.018;4.202;2022-10-19T00:03:28;19.45;;;10.00;;
17864;SDS011;9058;52.018;4.202;2022-10-19T00:05:55;21.83;;;10.02;;
17864;SDS011;9058;52.018;4.202;2022-10-19T00:08:22;23.80;;;10.98;;
17864;SDS011;9058;52.018;4.202;2022-10-19T00:10:48;18.40;;;10.50;;
17864;SDS011;9058;52.018;4.202;2022-10-19T00:13:16;19.38;;;11.27;;
17864;SDS011;9058;52.018;4.202;2022-10-19T00:15:44;20.73;;;10.98;;
17864;SDS011;9058;52.018;4.202;2022-10-19T00:18:10;25.33;;;12.20;;
17864;SDS011;9058;52.018;4.202;2022-10-19T00:20:37;24.33;;;10.82;;
17864;SDS011;9058;52.018;4.202;2022-10-19T00:23:04;24.13;;;9.63;;
17864;SDS011;9058;52.018;4.202;2022-10-19T00:25:31;27.98;;;10.27;;
17864;SDS011;9058;52.018;4.202;2022-10-19T00:27:58;19.17;;;10.70;;
17864;SDS011;9058;52.018;4.202;2022-10-19T00:30:25;18.27;;;10.10;;
17864;SDS011;9058;52.018;4.202;2022-10-19T00:32:53;19.40;;;8.93;;
17864;SDS011;9058;52.018;4.202;2022-10-19T00:35:20;19.92;;;9.55;;
17864;SDS011;9058;52.018;4.202;2022-10-19T00:37:46;20.23;;;10.05;;
17864;SDS011;9058;52.018;4.202;2022-10-19T00:40:13;12.38;;;8.20;;
17864;SDS011;9058;52.018;4.202;2022-10-19T00:42:39;16.00;;;9.35;;
17864;SDS011;9058;52.018;4.202;2022-10-19T00:45:10;19.42;;;9.43;;
17864;SDS011;9058;52.018;4.202;2022-10-19T00:47:37;17.17;;;8.68;;
17864;SDS011;9058;52.018;4.202;2022-10-19T00:50:08;15.73;;;9.15;;
17864;SDS011;9058;52.018;4.202;2022-10-19T00:52:36;18.58;;;8.07;;
17864;SDS011;9058;52.018;4.202;2022-10-19T00:55:03;21.33;;;9.00;;
17864;SDS011;9058;52.018;4.202;2022-10-19T00:57:30;15.75;;;8.13;;
17864;SDS011;9058;52.018;4.202;2022-10-19T00:59:57;19.58;;;8.38;;
17864;SDS011;9058;52.018;4.202;2022-10-19T01:02:24;18.52;;;7.88;;
17864;SDS011;9058;52.018;4.202;2022-10-19T01:04:51;15.73;;;8.27;;
17864;SDS011;9058;52.018;4.202;2022-10-19T01:07:20;11.38;;;6.82;;
17864;SDS011;9058;52.018;4.202;2022-10-19T01:09:47;16.13;;;8.15;;
17864;SDS011;9058;52.018;4.202;2022-10-19T01:12:18;12.40;;;7.55;;
17864;SDS011;9058;52.018;4.202;2022-10-19T01:14:50;14.85;;;7.28;;
17864;SDS011;9058;52.018;4.202;2022-10-19T01:17:20;16.15;;;8.15;;
17864;SDS011;9058;52.018;4.202;2022-10-19T01:19:59;16.13;;;8.80;;
17864;SDS011;9058;52.018;4.202;2022-10-19T01:22:36;16.77;;;7.63;;
17864;SDS011;9058;52.018;4.202;2022-10-19T01:25:08;14.90;;;7.60;;
17864;SDS011;9058;52.018;4.202;2022-10-19T01:27:43;14.48;;;7.82;;
17864;SDS011;9058;52.018;4.202;2022-10-19T01:30:19;13.85;;;7.30;;
17864;SDS011;9058;52.018;4.202;2022-10-19T01:32:53;16.58;;;7.63;;
17864;SDS011;9058;52.018;4.202;2022-10-19T01:35:24;13.20;;;7.78;;
17864;SDS011;9058;52.018;4.202;2022-10-19T01:37:54;16.63;;;7.38;;
17864;SDS011;9058;52.018;4.202;2022-10-19T01:40:25;14.23;;;8.32;;
17864;SDS011;9058;52.018;4.202;2022-10-19T01:42:55;14.57;;;7.72;;
17864;SDS011;9058;52.018;4.202;2022-10-19T01:45:27;11.25;;;6.65;;
17864;SDS011;9058;52.018;4.202;2022-10-19T01:47:57;17.48;;;7.93;;
17864;SDS011;9058;52.018;4.202;2022-10-19T01:50:26;11.23;;;7.93;;
17864;SDS011;9058;52.018;4.202;2022-10-19T01:52:54;13.20;;;7.55;;
17864;SDS011;9058;52.018;4.202;2022-10-19T01:55:21;17.67;;;7.55;;
17864;SDS011;9058;52.018;4.202;2022-10-19T01:57:51;11.25;;;6.90;;
17864;SDS011;9058;52.018;4.202;2022-10-19T02:00:18;14.05;;;7.78;;
17864;SDS011;9058;52.018;4.202;2022-10-19T02:02:47;18.00;;;7.80;;
17864;SDS011;9058;52.018;4.202;2022-10-19T02:05:15;15.93;;;7.10;;
17864;SDS011;9058;52.018;4.202;2022-10-19T02:07:44;11.30;;;6.72;;
17864;SDS011;9058;52.018;4.202;2022-10-19T02:10:12;14.25;;;7.25;;
17864;SDS011;9058;52.018;4.202;2022-10-19T02:12:39;14.43;;;6.90;;
17864;SDS011;9058;52.018;4.202;2022-10-19T02:15:08;24.30;;;7.82;;
17864;SDS011;9058;52.018;4.202;2022-10-19T02:17:38;13.35;;;7.07;;
17864;SDS011;9058;52.018;4.202;2022-10-19T02:20:08;13.05;;;7.13;;
17864;SDS011;9058;52.018;4.202;2022-10-19T02:22:35;11.40;;;7.32;;
17864;SDS011;9058;52.018;4.202;2022-10-19T02:25:02;20.75;;;7.80;;
17864;SDS011;9058;52.018;4.202;2022-10-19T02:27:29;14.30;;;7.00;;
17864;SDS011;9058;52.018;4.202;2022-10-19T02:29:56;14.45;;;8.15;;
17864;SDS011;9058;52.018;4.202;2022-10-19T02:32:24;13.02;;;7.30;;
17864;SDS011;9058;52.018;4.202;2022-10-19T02:34:51;13.75;;;7.15;;
17864;SDS011;9058;52.018;4.202;2022-10-19T02:37:20;14.60;;;7.22;;
17864;SDS011;9058;52.018;4.202;2022-10-19T02:39:46;16.50;;;8.95;;
17864;SDS011;9058;52.018;4.202;2022-10-19T02:42:14;15.07;;;8.23;;
17864;SDS011;9058;52.018;4.202;2022-10-19T02:44:45;15.10;;;7.85;;
17864;SDS011;9058;52.018;4.202;2022-10-19T02:47:13;14.13;;;7.75;;
17864;SDS011;9058;52.018;4.202;2022-10-19T02:49:41;12.27;;;7.70;;
17864;SDS011;9058;52.018;4.202;2022-10-19T02:52:08;13.57;;;7.53;;
17864;SDS011;9058;52.018;4.202;2022-10-19T02:54:38;15.68;;;8.05;;
17864;SDS011;9058;52.018;4.202;2022-10-19T02:57:13;12.48;;;8.30;;
17864;SDS011;9058;52.018;4.202;2022-10-19T02:59:39;20.20;;;8.65;;
17864;SDS011;9058;52.018;4.202;2022-10-19T03:02:06;13.02;;;9.13;;
17864;SDS011;9058;52.018;4.202;2022-10-19T03:04:33;16.00;;;9.82;;
17864;SDS011;9058;52.018;4.202;2022-10-19T03:07:00;17.55;;;10.02;;
17864;SDS011;9058;52.018;4.202;2022-10-19T03:09:26;20.75;;;9.63;;
17864;SDS011;9058;52.018;4.202;2022-10-19T03:11:55;21.92;;;9.88;;
17864;SDS011;9058;52.018;4.202;2022-10-19T03:14:22;19.75;;;9.77;;
17864;SDS011;9058;52.018;4.202;2022-10-19T03:16:49;20.73;;;10.48;;
17864;SDS011;9058;52.018;4.202;2022-10-19T03:19:16;18.60;;;10.40;;
17864;SDS011;9058;52.018;4.202;2022-10-19T03:21:42;19.50;;;11.70;;
17864;SDS011;9058;52.018;4.202;2022-10-19T03:24:09;17.05;;;10.55;;
17864;SDS011;9058;52.018;4.202;2022-10-19T03:26:36;20.15;;;11.40;;
17864;SDS011;9058;52.018;4.202;2022-10-19T03:29:04;26.77;;;12.00;;
17864;SDS011;9058;52.018;4.202;2022-10-19T03:31:31;21.88;;;10.93;;
17864;SDS011;9058;52.018;4.202;2022-10-19T03:33:58;20.27;;;11.52;;
17864;SDS011;9058;52.018;4.202;2022-10-19T03:36:26;23.02;;;11.77;;
17864;SDS011;9058;52.018;4.202;2022-10-19T03:38:54;19.52;;;11.70;;
17864;SDS011;9058;52.018;4.202;2022-10-19T03:41:21;21.13;;;11.13;;
17864;SDS011;9058;52.018;4.202;2022-10-19T03:43:48;18.42;;;11.45;;
17864;SDS011;9058;52.018;4.202;2022-10-19T03:46:17;15.73;;;11.48;;
17864;SDS011;9058;52.018;4.202;2022-10-19T03:48:44;20.52;;;12.23;;
17864;SDS011;9058;52.018;4.202;2022-10-19T03:51:12;22.60;;;13.05;;
17864;SDS011;9058;52.018;4.202;2022-10-19T03:53:39;21.00;;;11.70;;
17864;SDS011;9058;52.018;4.202;2022-10-19T03:56:06;17.90;;;11.88;;
17864;SDS011;9058;52.018;4.202;2022-10-19T03:58:34;20.25;;;12.63;;
17864;SDS011;9058;52.018;4.202;2022-10-19T04:01:04;27.00;;;13.70;;
17864;SDS011;9058;52.018;4.202;2022-10-19T04:03:34;19.88;;;12.30;;
17864;SDS011;9058;52.018;4.202;2022-10-19T04:06:01;24.00;;;13.30;;
17864;SDS011;9058;52.018;4.202;2022-10-19T04:08:28;21.50;;;12.38;;
17864;SDS011;9058;52.018;4.202;2022-10-19T04:10:57;21.20;;;12.43;;
17864;SDS011;9058;52.018;4.202;2022-10-19T04:13:24;24.38;;;13.18;;
17864;SDS011;9058;52.018;4.202;2022-10-19T04:15:50;24.48;;;13.25;;
17864;SDS011;9058;52.018;4.202;2022-10-19T04:18:17;24.42;;;13.68;;
17864;SDS011;9058;52.018;4.202;2022-10-19T04:20:46;20.63;;;13.63;;
17864;SDS011;9058;52.018;4.202;2022-10-19T04:23:13;20.35;;;13.85;;
17864;SDS011;9058;52.018;4.202;2022-10-19T04:25:39;20.75;;;13.60;;
17864;SDS011;9058;52.018;4.202;2022-10-19T04:28:06;25.13;;;14.02;;
17864;SDS011;9058;52.018;4.202;2022-10-19T04:30:33;21.70;;;13.23;;
17864;SDS011;9058;52.018;4.202;2022-10-19T04:33:00;20.55;;;13.80;;
17864;SDS011;9058;52.018;4.202;2022-10-19T04:35:27;24.35;;;13.93;;
17864;SDS011;9058;52.018;4.202;2022-10-19T04:37:56;27.88;;;13.90;;
17864;SDS011;9058;52.018;4.202;2022-10-19T04:40:23;21.67;;;14.52;;
17864;SDS011;9058;52.018;4.202;2022-10-19T04:42:50;22.70;;;14.68;;
17864;SDS011;9058;52.018;4.202;2022-10-19T04:45:16;26.20;;;15.85;;
17864;SDS011;9058;52.018;4.202;2022-10-19T04:47:43;26.95;;;14.13;;
17864;SDS011;9058;52.018;4.202;2022-10-19T04:50:09;22.02;;;13.82;;
17864;SDS011;9058;52.018;4.202;2022-10-19T04:52:36;20.90;;;14.10;;
17864;SDS011;9058;52.018;4.202;2022-10-19T04:55:05;26.65;;;15.13;;
17864;SDS011;9058;52.018;4.202;2022-10-19T04:57:32;21.05;;;14.43;;
17864;SDS011;9058;52.018;4.202;2022-10-19T04:59:59;22.08;;;14.27;;
17864;SDS011;9058;52.018;4.202;2022-10-19T05:02:26;20.25;;;13.43;;
17864;SDS011;9058;52.018;4.202;2022-10-19T05:04:53;24.40;;;13.00;;
17864;SDS011;9058;52.018;4.202;2022-10-19T05:07:19;26.17;;;13.55;;
17864;SDS011;9058;52.018;4.202;2022-10-19T05:09:46;20.33;;;12.98;;
17864;SDS011;9058;52.018;4.202;2022-10-19T05:12:15;19.95;;;11.88;;
17864;SDS011;9058;52.018;4.202;2022-10-19T05:14:41;18.83;;;12.05;;
17864;SDS011;9058;52.018;4.202;2022-10-19T05:17:08;19.73;;;12.75;;
17864;SDS011;9058;52.018;4.202;2022-10-19T05:19:36;21.17;;;11.75;;
17864;SDS011;9058;52.018;4.202;2022-10-19T05:22:03;18.52;;;11.70;;
17864;SDS011;9058;52.018;4.202;2022-10-19T05:24:30;18.98;;;11.80;;
17864;SDS011;9058;52.018;4.202;2022-10-19T05:26:57;16.50;;;11.10;;
17864;SDS011;9058;52.018;4.202;2022-10-19T05:29:25;18.10;;;12.00;;
17864;SDS011;9058;52.018;4.202;2022-10-19T05:31:52;15.45;;;10.10;;
17864;SDS011;9058;52.018;4.202;2022-10-19T05:34:19;22.02;;;11.02;;
17864;SDS011;9058;52.018;4.202;2022-10-19T05:36:46;15.30;;;10.48;;
17864;SDS011;9058;52.018;4.202;2022-10-19T05:39:13;16.88;;;10.93;;
17864;SDS011;9058;52.018;4.202;2022-10-19T05:41:41;22.48;;;11.50;;
17864;SDS011;9058;52.018;4.202;2022-10-19T05:44:09;21.20;;;11.45;;
17864;SDS011;9058;52.018;4.202;2022-10-19T05:46:38;15.70;;;9.82;;
17864;SDS011;9058;52.018;4.202;2022-10-19T05:49:05;18.52;;;10.73;;
17864;SDS011;9058;52.018;4.202;2022-10-19T05:51:33;14.32;;;9.60;;
17864;SDS011;9058;52.018;4.202;2022-10-19T05:53:59;14.32;;;9.90;;
17864;SDS011;9058;52.018;4.202;2022-10-19T05:56:26;14.00;;;9.93;;
17864;SDS011;9058;52.018;4.202;2022-10-19T05:58:53;12.65;;;10.23;;
17864;SDS011;9058;52.018;4.202;2022-10-19T06:01:20;16.95;;;10.15;;
17864;SDS011;9058;52.018;4.202;2022-10-19T06:03:49;15.32;;;9.65;;
17864;SDS011;9058;52.018;4.202;2022-10-19T06:06:16;18.10;;;9.30;;
17864;SDS011;9058;52.018;4.202;2022-10-19T06:08:43;18.85;;;10.07;;
17864;SDS011;9058;52.018;4.202;2022-10-19T06:11:11;15.80;;;10.18;;
17864;SDS011;9058;52.018;4.202;2022-10-19T06:13:38;17.58;;;10.55;;
17864;SDS011;9058;52.018;4.202;2022-10-19T06:16:05;14.30;;;8.68;;
17864;SDS011;9058;52.018;4.202;2022-10-19T06:18:34;15.70;;;9.65;;
17864;SDS011;9058;52.018;4.202;2022-10-19T06:21:03;16.23;;;8.00;;
17864;SDS011;9058;52.018;4.202;2022-10-19T06:23:30;14.15;;;8.57;;
17864;SDS011;9058;52.018;4.202;2022-10-19T06:26:00;14.63;;;8.32;;
17864;SDS011;9058;52.018;4.202;2022-10-19T06:28:28;19.10;;;8.75;;
17864;SDS011;9058;52.018;4.202;2022-10-19T06:30:55;14.73;;;7.82;;
17864;SDS011;9058;52.018;4.202;2022-10-19T06:33:22;13.18;;;7.68;;
17864;SDS011;9058;52.018;4.202;2022-10-19T06:35:49;13.10;;;6.80;;
17864;SDS011;9058;52.018;4.202;2022-10-19T06:38:17;12.07;;;7.07;;
17864;SDS011;9058;52.018;4.202;2022-10-19T06:40:44;10.40;;;7.53;;
17864;SDS011;9058;52.018;4.202;2022-10-19T06:43:13;11.10;;;7.00;;
17864;SDS011;9058;52.018;4.202;2022-10-19T06:45:39;14.23;;;6.97;;
17864;SDS011;9058;52.018;4.202;2022-10-19T06:48:06;12.82;;;7.53;;
17864;SDS011;9058;52.018;4.202;2022-10-19T06:50:33;16.40;;;7.20;;
17864;SDS011;9058;52.018;4.202;2022-10-19T06:53:01;12.63;;;6.80;;
17864;SDS011;9058;52.018;4.202;2022-10-19T06:55:30;12.02;;;6.78;;
17864;SDS011;9058;52.018;4.202;2022-10-19T06:57:56;14.02;;;6.20;;
17864;SDS011;9058;52.018;4.202;2022-10-19T07:00:26;14.32;;;6.35;;
17864;SDS011;9058;52.018;4.202;2022-10-19T07:02:52;8.85;;;5.88;;
17864;SDS011;9058;52.018;4.202;2022-10-19T07:05:19;11.68;;;5.50;;
17864;SDS011;9058;52.018;4.202;2022-10-19T07:07:46;16.13;;;6.40;;
17864;SDS011;9058;52.018;4.202;2022-10-19T07:10:13;8.30;;;5.22;;
17864;SDS011;9058;52.018;4.202;2022-10-19T07:12:41;10.27;;;5.53;;
17864;SDS011;9058;52.018;4.202;2022-10-19T07:15:07;7.88;;;4.75;;
17864;SDS011;9058;52.018;4.202;2022-10-19T07:17:34;8.35;;;4.55;;
17864;SDS011;9058;52.018;4.202;2022-10-19T07:20:01;9.93;;;4.75;;
17864;SDS011;9058;52.018;4.202;2022-10-19T07:22:27;7.13;;;4.40;;
17864;SDS011;9058;52.018;4.202;2022-10-19T07:24:54;8.35;;;4.13;;
17864;SDS011;9058;52.018;4.202;2022-10-19T07:27:20;8.15;;;4.43;;
17864;SDS011;9058;52.018;4.202;2022-10-19T07:29:48;7.97;;;3.85;;
17864;SDS011;9058;52.018;4.202;2022-10-19T07:32:15;9.80;;;3.90;;
17864;SDS011;9058;52.018;4.202;2022-10-19T07:34:45;9.95;;;4.10;;
17864;SDS011;9058;52.018;4.202;2022-10-19T07:37:11;8.13;;;3.33;;
17864;SDS011;9058;52.018;4.202;2022-10-19T07:39:38;9.45;;;4.20;;
17864;SDS011;9058;52.018;4.202;2022-10-19T07:42:04;7.28;;;3.20;;
17864;SDS011;9058;52.018;4.202;2022-10-19T07:44:31;8.70;;;3.22;;
17864;SDS011;9058;52.018;4.202;2022-10-19T07:46:59;6.88;;;3.53;;
17864;SDS011;9058;52.018;4.202;2022-10-19T07:49:25;3.90;;;2.72;;
17864;SDS011;9058;52.018;4.202;2022-10-19T07:51:52;4.95;;;2.72;;
17864;SDS011;9058;52.018;4.202;2022-10-19T07:54:20;7.05;;;2.30;;
17864;SDS011;9058;52.018;4.202;2022-10-19T07:56:48;4.13;;;2.42;;
17864;SDS011;9058;52.018;4.202;2022-10-19T07:59:15;11.27;;;2.50;;
17864;SDS011;9058;52.018;4.202;2022-10-19T08:01:41;3.05;;;2.08;;
17864;SDS011;9058;52.018;4.202;2022-10-19T08:04:10;7.72;;;2.30;;
17864;SDS011;9058;52.018;4.202;2022-10-19T08:06:36;4.57;;;2.25;;
17864;SDS011;9058;52.018;4.202;2022-10-19T08:09:03;5.13;;;2.05;;
17864;SDS011;9058;52.018;4.202;2022-10-19T08:11:30;4.15;;;1.50;;
17864;SDS011;9058;52.018;4.202;2022-10-19T08:13:57;6.45;;;1.77;;
17864;SDS011;9058;52.018;4.202;2022-10-19T08:16:25;6.20;;;1.75;;
17864;SDS011;9058;52.018;4.202;2022-10-19T08:18:52;3.63;;;1.35;;
17864;SDS011;9058;52.018;4.202;2022-10-19T08:21:23;4.57;;;1.20;;
17864;SDS011;9058;52.018;4.202;2022-10-19T08:23:50;2.97;;;1.38;;
17864;SDS011;9058;52.018;4.202;2022-10-19T08:26:16;4.05;;;1.73;;
17864;SDS011;9058;52.018;4.202;2022-10-19T08:28:43;5.15;;;1.45;;
17864;SDS011;9058;52.018;4.202;2022-10-19T08:31:18;3.72;;;1.13;;
17864;SDS011;9058;52.018;4.202;2022-10-19T08:33:45;3.58;;;1.55;;
17864;SDS011;9058;52.018;4.202;2022-10-19T08:36:12;2.58;;;1.15;;
17864;SDS011;9058;52.018;4.202;2022-10-19T08:38:40;3.10;;;1.20;;
17864;SDS011;9058;52.018;4.202;2022-10-19T08:41:13;5.32;;;1.60;;
17864;SDS011;9058;52.018;4.202;2022-10-19T08:43:47;6.05;;;2.45;;
17864;SDS011;9058;52.018;4.202;2022-10-19T08:46:17;2.15;;;1.13;;
17864;SDS011;9058;52.018;4.202;2022-10-19T08:48:46;2.83;;;0.95;;
17864;SDS011;9058;52.018;4.202;2022-10-19T08:51:13;3.70;;;1.30;;
17864;SDS011;9058;52.018;4.202;2022-10-19T08:53:42;4.07;;;1.40;;
17864;SDS011;9058;52.018;4.202;2022-10-19T08:56:14;6.85;;;1.70;;
17864;SDS011;9058;52.018;4.202;2022-10-19T08:58:47;2.92;;;1.27;;
17864;SDS011;9058;52.018;4.202;2022-10-19T09:01:23;6.65;;;1.73;;
17864;SDS011;9058;52.018;4.202;2022-10-19T09:03:53;3.75;;;1.42;;
17864;SDS011;9058;52.018;4.202;2022-10-19T09:06:22;3.45;;;1.15;;
17864;SDS011;9058;52.018;4.202;2022-10-19T09:08:53;4.55;;;1.30;;
17864;SDS011;9058;52.018;4.202;2022-10-19T09:11:21;6.20;;;1.10;;
17864;SDS011;9058;52.018;4.202;2022-10-19T09:13:50;3.33;;;0.93;;
17864;SDS011;9058;52.018;4.202;2022-10-19T09:16:20;5.07;;;1.00;;
17864;SDS011;9058;52.018;4.202;2022-10-19T09:18:47;2.90;;;1.27;;
17864;SDS011;9058;52.018;4.202;2022-10-19T09:21:15;6.22;;;1.80;;
17864;SDS011;9058;52.018;4.202;2022-10-19T09:23:46;2.78;;;1.20;;
17864;SDS011;9058;52.018;4.202;2022-10-19T09:26:18;3.28;;;1.33;;
17864;SDS011;9058;52.018;4.202;2022-10-19T09:28:47;3.20;;;1.65;;
17864;SDS011;9058;52.018;4.202;2022-10-19T09:31:16;5.10;;;1.90;;
17864;SDS011;9058;52.018;4.202;2022-10-19T09:33:45;4.32;;;1.45;;
17864;SDS011;9058;52.018;4.202;2022-10-19T09:36:14;3.90;;;1.40;;
17864;SDS011;9058;52.018;4.202;2022-10-19T09:38:40;4.30;;;1.40;;
17864;SDS011;9058;52.018;4.202;2022-10-19T09:41:16;6.82;;;1.80;;
17864;SDS011;9058;52.018;4.202;2022-10-19T09:43:44;5.57;;;1.10;;
17864;SDS011;9058;52.018;4.202;2022-10-19T09:46:19;9.63;;;1.45;;
17864;SDS011;9058;52.018;4.202;2022-10-19T09:48:52;2.67;;;1.42;;
17864;SDS011;9058;52.018;4.202;2022-10-19T09:51:19;5.72;;;1.40;;
17864;SDS011;9058;52.018;4.202;2022-10-19T09:53:46;2.90;;;0.70;;
17864;SDS011;9058;52.018;4.202;2022-10-19T09:56:18;2.20;;;1.00;;
17864;SDS011;9058;52.018;4.202;2022-10-19T09:58:46;6.90;;;1.55;;
17864;SDS011;9058;52.018;4.202;2022-10-19T10:01:27;5.38;;;1.20;;
17864;SDS011;9058;52.018;4.202;2022-10-19T10:04:03;4.35;;;1.40;;
17864;SDS011;9058;52.018;4.202;2022-10-19T10:06:30;4.32;;;0.85;;
17864;SDS011;9058;52.018;4.202;2022-10-19T10:08:56;4.07;;;0.98;;
17864;SDS011;9058;52.018;4.202;2022-10-19T10:11:26;5.10;;;1.30;;
17864;SDS011;9058;52.018;4.202;2022-10-19T10:13:54;4.05;;;1.17;;
17864;SDS011;9058;52.018;4.202;2022-10-19T10:16:21;2.67;;;0.95;;
17864;SDS011;9058;52.018;4.202;2022-10-19T10:18:50;4.88;;;1.50;;
17864;SDS011;9058;52.018;4.202;2022-10-19T10:21:19;2.85;;;1.10;;
17864;SDS011;9058;52.018;4.202;2022-10-19T10:23:57;2.45;;;0.77;;
17864;SDS011;9058;52.018;4.202;2022-10-19T10:26:26;6.20;;;0.98;;
17864;SDS011;9058;52.018;4.202;2022-10-19T10:28:53;5.38;;;1.17;;
17864;SDS011;9058;52.018;4.202;2022-10-19T10:31:21;0.90;;;0.75;;
17864;SDS011;9058;52.018;4.202;2022-10-19T10:33:53;2.50;;;1.10;;
17864;SDS011;9058;52.018;4.202;2022-10-19T10:36:22;3.35;;;0.90;;
17864;SDS011;9058;52.018;4.202;2022-10-19T10:38:49;3.75;;;1.90;;
17864;SDS011;9058;52.018;4.202;2022-10-19T10:41:19;1.30;;;0.95;;
17864;SDS011;9058;52.018;4.202;2022-10-19T10:43:50;3.08;;;1.05;;
17864;SDS011;9058;52.018;4.202;2022-10-19T10:46:18;2.97;;;1.15;;
17864;SDS011;9058;52.018;4.202;2022-10-19T10:48:50;1.98;;;1.25;;
17864;SDS011;9058;52.018;4.202;2022-10-19T10:51:18;2.58;;;0.80;;
17864;SDS011;9058;52.018;4.202;2022-10-19T10:53:45;5.95;;;1.45;;
17864;SDS011;9058;52.018;4.202;2022-10-19T10:56:20;3.47;;;1.52;;
17864;SDS011;9058;52.018;4.202;2022-10-19T10:58:47;2.08;;;1.20;;
17864;SDS011;9058;52.018;4.202;2022-10-19T11:01:17;2.75;;;1.35;;
17864;SDS011;9058;52.018;4.202;2022-10-19T11:03:48;2.08;;;1.30;;
17864;SDS011;9058;52.018;4.202;2022-10-19T11:06:16;5.10;;;1.20;;
17864;SDS011;9058;52.018;4.202;2022-10-19T11:08:45;2.55;;;1.17;;
17864;SDS011;9058;52.018;4.202;2022-10-19T11:11:16;3.80;;;1.05;;
17864;SDS011;9058;52.018;4.202;2022-10-19T11:13:44;1.70;;;1.10;;
17864;SDS011;9058;52.018;4.202;2022-10-19T11:16:15;2.35;;;1.70;;
17864;SDS011;9058;52.018;4.202;2022-10-19T11:18:43;2.40;;;1.20;;
17864;SDS011;9058;52.018;4.202;2022-10-19T11:21:12;3.60;;;1.00;;
17864;SDS011;9058;52.018;4.202;2022-10-19T11:23:46;1.67;;;1.05;;
17864;SDS011;9058;52.018;4.202;2022-10-19T11:26:18;6.50;;;1.67;;
17864;SDS011;9058;52.018;4.202;2022-10-19T11:28:53;5.28;;;1.40;;
17864;SDS011;9058;52.018;4.202;2022-10-19T11:31:24;2.28;;;1.10;;
17864;SDS011;9058;52.018;4.202;2022-10-19T11:33:57;3.42;;;1.65;;
17864;SDS011;9058;52.018;4.202;2022-10-19T11:36:32;3.15;;;1.73;;
17864;SDS011;9058;52.018;4.202;2022-10-19T11:39:06;3.65;;;1.25;;
17864;SDS011;9058;52.018;4.202;2022-10-19T11:41:37;4.40;;;1.20;;
17864;SDS011;9058;52.018;4.202;2022-10-19T11:44:13;0.93;;;0.75;;
17864;SDS011;9058;52.018;4.202;2022-10-19T11:46:46;3.25;;;1.25;;
17864;SDS011;9058;52.018;4.202;2022-10-19T11:49:20;2.40;;;1.08;;
17864;SDS011;9058;52.018;4.202;2022-10-19T11:51:49;1.55;;;0.98;;
17864;SDS011;9058;52.018;4.202;2022-10-19T11:54:24;3.53;;;1.02;;
17864;SDS011;9058;52.018;4.202;2022-10-19T11:56:56;4.18;;;1.60;;
17864;SDS011;9058;52.018;4.202;2022-10-19T11:59:27;6.40;;;1.95;;
17864;SDS011;9058;52.018;4.202;2022-10-19T12:01:57;6.47;;;1.40;;
17864;SDS011;9058;52.018;4.202;2022-10-19T12:04:31;6.25;;;2.17;;
17864;SDS011;9058;52.018;4.202;2022-10-19T12:07:04;3.90;;;1.10;;
17864;SDS011;9058;52.018;4.202;2022-10-19T12:09:38;1.40;;;1.10;;
17864;SDS011;9058;52.018;4.202;2022-10-19T12:12:13;2.35;;;1.17;;
17864;SDS011;9058;52.018;4.202;2022-10-19T12:14:45;1.55;;;1.05;;
17864;SDS011;9058;52.018;4.202;2022-10-19T12:17:14;2.00;;;1.15;;
17864;SDS011;9058;52.018;4.202;2022-10-19T12:19:46;5.93;;;1.55;;
17864;SDS011;9058;52.018;4.202;2022-10-19T12:22:14;3.42;;;1.50;;
17864;SDS011;9058;52.018;4.202;2022-10-19T12:24:42;2.90;;;1.10;;
17864;SDS011;9058;52.018;4.202;2022-10-19T12:27:09;2.58;;;1.08;;
17864;SDS011;9058;52.018;4.202;2022-10-19T12:29:38;3.88;;;1.25;;
17864;SDS011;9058;52.018;4.202;2022-10-19T12:32:06;4.68;;;1.20;;
17864;SDS011;9058;52.018;4.202;2022-10-19T12:34:35;4.32;;;1.45;;
17864;SDS011;9058;52.018;4.202;2022-10-19T12:37:06;1.73;;;1.48;;
17864;SDS011;9058;52.018;4.202;2022-10-19T12:39:34;3.47;;;1.40;;
17864;SDS011;9058;52.018;4.202;2022-10-19T12:42:06;1.65;;;1.23;;
17864;SDS011;9058;52.018;4.202;2022-10-19T12:44:41;4.13;;;1.83;;
17864;SDS011;9058;52.018;4.202;2022-10-19T12:47:10;4.10;;;1.55;;
17864;SDS011;9058;52.018;4.202;2022-10-19T12:49:43;9.52;;;1.70;;
17864;SDS011;9058;52.018;4.202;2022-10-19T12:52:13;1.33;;;1.10;;
17864;SDS011;9058;52.018;4.202;2022-10-19T12:54:40;2.95;;;1.55;;
17864;SDS011;9058;52.018;4.202;2022-10-19T12:57:19;3.05;;;1.77;;
17864;SDS011;9058;52.018;4.202;2022-10-19T12:59:47;3.67;;;2.00;;
17864;SDS011;9058;52.018;4.202;2022-10-19T13:02:24;3.55;;;1.35;;
17864;SDS011;9058;52.018;4.202;2022-10-19T13:04:53;5.50;;;1.55;;
17864;SDS011;9058;52.018;4.202;2022-10-19T13:07:21;4.18;;;1.70;;
17864;SDS011;9058;52.018;4.202;2022-10-19T13:09:57;4.70;;;1.67;;
17864;SDS011;9058;52.018;4.202;2022-10-19T13:21:06;6.28;;;1.42;;
17864;SDS011;9058;52.018;4.202;2022-10-19T13:23:38;2.60;;;1.45;;
17864;SDS011;9058;52.018;4.202;2022-10-19T13:29:02;2.90;;;1.02;;
17864;SDS011;9058;52.018;4.202;2022-10-19T13:31:29;1.58;;;1.25;;
17864;SDS011;9058;52.018;4.202;2022-10-19T13:33:57;2.40;;;0.93;;
17864;SDS011;9058;52.018;4.202;2022-10-19T13:36:24;2.75;;;1.60;;
17864;SDS011;9058;52.018;4.202;2022-10-19T13:39:03;3.83;;;1.92;;
17864;SDS011;9058;52.018;4.202;2022-10-19T13:41:47;3.42;;;1.48;;
17864;SDS011;9058;52.018;4.202;2022-10-19T13:44:18;0.80;;;0.80;;
17864;SDS011;9058;52.018;4.202;2022-10-19T13:46:48;6.15;;;1.55;;
17864;SDS011;9058;52.018;4.202;2022-10-19T13:49:29;3.05;;;1.50;;
17864;SDS011;9058;52.018;4.202;2022-10-19T13:52:01;3.45;;;1.20;;
17864;SDS011;9058;52.018;4.202;2022-10-19T13:54:35;3.17;;;1.25;;
17864;SDS011;9058;52.018;4.202;2022-10-19T13:57:10;2.70;;;1.58;;
17864;SDS011;9058;52.018;4.202;2022-10-19T13:59:48;4.70;;;1.65;;
17864;SDS011;9058;52.018;4.202;2022-10-19T14:02:35;3.40;;;1.60;;
17864;SDS011;9058;52.018;4.202;2022-10-19T14:05:10;2.42;;;1.40;;
17864;SDS011;9058;52.018;4.202;2022-10-19T14:07:42;3.20;;;1.65;;
17864;SDS011;9058;52.018;4.202;2022-10-19T14:10:13;2.80;;;1.50;;
17864;SDS011;9058;52.018;4.202;2022-10-19T14:12:41;2.78;;;1.73;;
17864;SDS011;9058;52.018;4.202;2022-10-19T14:15:11;6.65;;;1.80;;
17864;SDS011;9058;52.018;4.202;2022-10-19T14:17:40;2.85;;;1.63;;
17864;SDS011;9058;52.018;4.202;2022-10-19T14:20:17;3.08;;;1.40;;
17864;SDS011;9058;52.018;4.202;2022-10-19T14:22:49;3.13;;;1.77;;
17864;SDS011;9058;52.018;4.202;2022-10-19T14:25:19;4.68;;;1.95;;
17864;SDS011;9058;52.018;4.202;2022-10-19T14:27:46;5.00;;;1.80;;
17864;SDS011;9058;52.018;4.202;2022-10-19T14:30:19;3.55;;;1.98;;
17864;SDS011;9058;52.018;4.202;2022-10-19T14:32:46;5.30;;;2.08;;
17864;SDS011;9058;52.018;4.202;2022-10-19T14:35:16;2.83;;;1.80;;
17864;SDS011;9058;52.018;4.202;2022-10-19T14:37:44;2.88;;;2.30;;
17864;SDS011;9058;52.018;4.202;2022-10-19T14:40:23;5.20;;;2.33;;
17864;SDS011;9058;52.018;4.202;2022-10-19T14:42:50;4.65;;;2.00;;
17864;SDS011;9058;52.018;4.202;2022-10-19T14:45:18;4.43;;;2.10;;
17864;SDS011;9058;52.018;4.202;2022-10-19T14:47:50;4.70;;;1.90;;
17864;SDS011;9058;52.018;4.202;2022-10-19T14:50:17;4.47;;;2.15;;
17864;SDS011;9058;52.018;4.202;2022-10-19T14:52:44;4.70;;;1.88;;
17864;SDS011;9058;52.018;4.202;2022-10-19T14:55:12;4.60;;;2.22;;
17864;SDS011;9058;52.018;4.202;2022-10-19T15:09:47;3.13;;;2.28;;
17864;SDS011;9058;52.018;4.202;2022-10-19T15:12:15;4.82;;;2.67;;
17864;SDS011;9058;52.018;4.202;2022-10-19T15:14:45;7.53;;;2.13;;
17864;SDS011;9058;52.018;4.202;2022-10-19T15:17:20;5.10;;;1.77;;
17864;SDS011;9058;52.018;4.202;2022-10-19T15:19:48;5.18;;;2.10;;
17864;SDS011;9058;52.018;4.202;2022-10-19T15:22:15;2.50;;;1.75;;
17864;SDS011;9058;52.018;4.202;2022-10-19T15:24:56;3.38;;;1.80;;
17864;SDS011;9058;52.018;4.202;2022-10-19T15:27:27;4.40;;;2.10;;